createdAt,value
2023-02-23T08:24:00.768Z,9.30
2023-02-23T08:26:27.846Z,9.30
2023-02-23T08:28:55.474Z,9.40
2023-02-23T08:31:24.265Z,9.40
2023-02-23T08:33:53.004Z,9.50
2023-02-23T08:53:36.610Z,10.00
2023-02-23T08:56:07.202Z,10.10
2023-02-23T08:58:36.263Z,10.10
2023-02-23T09:01:03.991Z,10.10
2023-02-23T09:03:31.761Z,10.20
2023-02-23T09:06:08.154Z,10.30
2023-02-23T09:08:35.580Z,10.30
2023-02-23T09:11:02.865Z,10.40
2023-02-23T09:13:30.225Z,10.50
2023-02-23T09:15:57.902Z,10.50
2023-02-23T09:18:27.977Z,10.40
2023-02-23T09:20:55.010Z,10.60
2023-02-23T09:23:22.100Z,10.70
2023-02-23T09:25:49.198Z,10.80
2023-02-23T09:28:19.225Z,10.90
2023-02-23T09:30:47.114Z,11.00
2023-02-23T09:33:14.887Z,11.10
2023-02-23T09:35:41.929Z,11.20
2023-02-23T09:38:09.752Z,11.20
2023-02-23T09:40:56.987Z,11.30
2023-02-23T09:44:07.777Z,11.50
2023-02-23T09:46:45.476Z,11.50
2023-02-23T09:49:22.280Z,11.50
2023-02-23T09:51:58.851Z,11.50
2023-02-23T09:54:32.185Z,11.60
2023-02-23T09:57:06.824Z,11.60
2023-02-23T09:59:35.962Z,11.70
2023-02-23T10:02:34.970Z,11.60
2023-02-23T10:05:08.345Z,11.50
2023-02-23T10:07:50.825Z,11.50
2023-02-23T10:10:29.771Z,11.40
2023-02-23T10:13:22.194Z,11.30
2023-02-23T10:16:21.070Z,11.30
2023-02-23T10:19:20.122Z,11.60
2023-02-23T10:21:57.009Z,11.50
2023-02-23T10:24:45.605Z,11.70
2023-02-23T10:27:19.452Z,11.90
2023-02-23T10:29:52.996Z,12.10
2023-02-23T10:32:45.527Z,12.50
2023-02-23T10:35:17.099Z,12.90
2023-02-23T10:37:44.714Z,13.40
2023-02-23T10:40:21.403Z,13.70
2023-02-23T10:42:48.398Z,13.90
2023-02-23T10:45:23.070Z,13.60
2023-02-23T10:48:07.542Z,13.80
2023-02-23T10:50:39.554Z,14.20
2023-02-23T10:53:32.725Z,14.70
2023-02-23T10:56:18.432Z,15.30
2023-02-23T10:58:50.572Z,15.40
2023-02-23T11:01:41.764Z,15.50
2023-02-23T11:07:33.818Z,15.60
2023-02-23T11:10:27.736Z,16.30
2023-02-23T11:12:54.684Z,16.60
2023-02-23T11:15:31.998Z,17.70
2023-02-23T11:18:04.992Z,18.40
2023-02-23T11:20:39.826Z,18.10
2023-02-23T11:23:32.218Z,17.70
2023-02-23T11:26:29.232Z,17.10
2023-02-23T11:29:00.704Z,16.80
2023-02-23T11:31:35.120Z,16.70
2023-02-23T11:34:06.607Z,16.80
2023-02-23T11:36:37.791Z,16.90
2023-02-23T11:39:16.838Z,17.30
2023-02-23T11:41:44.074Z,17.40
2023-02-23T11:44:23.253Z,17.20
2023-02-23T11:46:51.707Z,17.00
2023-02-23T11:49:26.005Z,16.80
2023-02-23T11:51:54.723Z,16.70
2023-02-23T11:54:33.450Z,16.80
2023-02-23T11:57:02.735Z,16.90
2023-02-23T11:59:41.592Z,16.90
2023-02-23T12:02:26.055Z,16.80
2023-02-23T12:05:25.167Z,16.70
2023-02-23T12:08:14.851Z,16.40
2023-02-23T12:10:55.106Z,16.20
2023-02-23T12:13:49.715Z,16.50
2023-02-23T12:16:28.823Z,16.90
2023-02-23T12:18:57.558Z,17.00
2023-02-23T12:21:38.668Z,16.80
2023-02-23T12:24:23.825Z,16.80
2023-02-23T12:27:02.185Z,16.80
2023-02-23T12:30:09.215Z,16.80
2023-02-23T12:33:01.141Z,16.90
2023-02-23T12:35:58.367Z,16.90
2023-02-23T12:38:55.956Z,17.00
2023-02-23T12:41:37.871Z,17.00
2023-02-23T12:45:01.807Z,17.00
2023-02-23T12:47:54.026Z,17.10
2023-02-23T12:51:00.469Z,16.80
2023-02-23T12:53:42.205Z,16.70
2023-02-23T12:56:45.645Z,16.60
2023-02-23T12:59:49.341Z,16.30
2023-02-23T13:02:40.500Z,16.20
2023-02-23T13:05:26.897Z,16.00
2023-02-23T13:08:13.695Z,15.90
2023-02-23T13:10:46.842Z,15.90
2023-02-23T13:14:00.711Z,15.80
2023-02-23T13:16:37.463Z,15.70
2023-02-23T13:19:15.381Z,15.60
2023-02-23T13:21:54.941Z,15.50
2023-02-23T13:24:27.921Z,15.30
2023-02-23T13:27:34.000Z,15.30
2023-02-23T13:30:01.407Z,15.10
2023-02-23T13:32:34.253Z,15.10
2023-02-23T13:35:13.098Z,15.20
2023-02-23T13:37:55.806Z,15.10
2023-02-23T13:40:44.459Z,15.10
2023-02-23T13:43:35.083Z,15.20
2023-02-23T13:46:25.472Z,15.30
2023-02-23T13:49:02.951Z,15.30
2023-02-23T13:51:35.526Z,15.20
2023-02-23T13:54:16.405Z,15.20
2023-02-23T13:56:55.201Z,15.30
2023-02-23T13:59:30.530Z,15.10
2023-02-23T14:02:00.832Z,15.10
2023-02-23T14:04:42.405Z,15.10
2023-02-23T14:07:09.502Z,15.00
2023-02-23T14:10:08.289Z,15.00
2023-02-23T14:12:39.135Z,15.00
2023-02-23T14:15:28.056Z,14.90
2023-02-23T14:18:02.517Z,14.90
2023-02-23T14:20:38.674Z,14.90
2023-02-23T14:23:20.999Z,14.90
2023-02-23T14:26:11.844Z,15.00
2023-02-23T14:28:42.888Z,14.90
2023-02-23T14:31:13.039Z,14.90
2023-02-23T14:33:43.083Z,14.90
2023-02-23T14:36:22.335Z,14.80
2023-02-23T14:39:00.883Z,14.80
2023-02-23T14:41:52.653Z,14.70
2023-02-23T14:44:32.881Z,14.70
2023-02-23T14:47:11.850Z,14.70
2023-02-23T14:50:04.309Z,14.70
2023-02-23T14:52:41.513Z,14.70
2023-02-23T14:55:11.516Z,14.60
2023-02-23T14:57:41.935Z,14.70
2023-02-23T15:00:16.532Z,14.70
2023-02-23T15:03:00.709Z,14.70
2023-02-23T15:05:47.696Z,14.80
2023-02-23T15:08:23.190Z,14.70
2023-02-23T15:11:18.880Z,14.70
2023-02-23T15:13:51.174Z,14.80
2023-02-23T15:16:32.044Z,14.70
2023-02-23T15:19:01.800Z,14.70
2023-02-23T15:21:28.893Z,14.60
2023-02-23T15:24:07.569Z,14.50
2023-02-23T15:26:38.967Z,14.40
2023-02-23T15:29:14.412Z,14.30
2023-02-23T15:31:52.402Z,14.20
2023-02-23T15:34:23.957Z,14.20
2023-02-23T15:37:10.627Z,14.00
2023-02-23T15:39:53.145Z,13.90
2023-02-23T15:42:38.109Z,13.80
2023-02-23T15:45:20.063Z,13.70
2023-02-23T15:47:47.269Z,13.70
2023-02-23T15:50:34.906Z,13.60
2023-02-23T15:53:20.865Z,13.60
2023-02-23T15:55:48.375Z,13.50
2023-02-23T15:58:28.505Z,13.40
2023-02-23T16:01:10.552Z,13.40
2023-02-23T16:03:57.373Z,13.30
2023-02-23T16:06:35.133Z,13.30
2023-02-23T16:09:23.964Z,13.20
2023-02-23T16:12:11.391Z,13.20
2023-02-23T16:14:56.383Z,13.10
2023-02-23T16:17:33.274Z,13.10
2023-02-23T16:20:41.417Z,13.00
2023-02-23T16:23:47.757Z,13.00
2023-02-23T16:26:27.243Z,13.00
2023-02-23T16:29:00.204Z,12.90
2023-02-23T16:31:58.198Z,12.80
2023-02-23T16:34:55.600Z,12.80
2023-02-23T16:37:28.044Z,12.80
2023-02-23T16:40:00.160Z,12.70
2023-02-23T16:42:34.885Z,12.70
2023-02-23T16:45:02.265Z,12.70
2023-02-23T16:47:41.863Z,12.70
2023-02-23T16:50:24.177Z,12.60
2023-02-23T16:52:53.334Z,12.60
2023-02-23T16:55:26.088Z,12.50
2023-02-23T16:57:58.173Z,12.50
2023-02-23T17:00:32.828Z,12.40
2023-02-23T17:03:05.616Z,12.40
2023-02-23T17:05:33.392Z,12.30
2023-02-23T17:08:00.448Z,12.20
2023-02-23T17:10:33.752Z,12.20
2023-02-23T17:13:13.401Z,12.10
2023-02-23T17:15:53.713Z,12.10
2023-02-23T17:20:54.235Z,12.10
2023-02-23T17:23:25.988Z,12.00
2023-02-23T17:25:55.808Z,12.00
2023-02-23T17:28:23.008Z,12.00
2023-02-23T17:30:50.185Z,12.00
2023-02-23T17:33:17.549Z,12.00
2023-02-23T17:35:45.376Z,12.00
2023-02-23T17:38:12.414Z,12.00
2023-02-23T17:40:39.468Z,11.90
2023-02-23T17:43:10.412Z,11.90
2023-02-23T17:45:37.379Z,11.80
2023-02-23T17:48:04.568Z,11.70
2023-02-23T17:50:31.561Z,11.70
2023-02-23T17:52:58.536Z,11.70
2023-02-23T17:55:25.820Z,11.60
2023-02-23T17:57:52.842Z,11.50
2023-02-23T18:00:20.871Z,11.40
2023-02-23T18:02:48.174Z,11.30
2023-02-23T18:05:15.942Z,11.20
2023-02-23T18:07:43.023Z,11.10
2023-02-23T18:10:11.426Z,11.00
2023-02-23T18:15:07.385Z,10.80
2023-02-23T18:17:37.081Z,10.80
2023-02-23T18:20:07.063Z,10.80
2023-02-23T18:22:34.719Z,10.80
2023-02-23T18:25:01.799Z,11.00
2023-02-23T18:27:28.784Z,11.20
2023-02-23T18:29:55.719Z,11.40
2023-02-23T18:32:23.064Z,11.60
2023-02-23T18:34:51.098Z,11.80
2023-02-23T18:37:25.021Z,11.90
2023-02-23T18:39:54.505Z,11.90
2023-02-23T18:42:21.551Z,11.70
2023-02-23T18:44:48.862Z,11.50
2023-02-23T18:47:15.873Z,11.40
2023-02-23T18:49:43.058Z,11.40
2023-02-23T18:52:10.783Z,11.20
2023-02-23T18:54:40.310Z,11.10
2023-02-23T18:57:07.430Z,11.20
2023-02-23T18:59:34.448Z,11.20
2023-02-23T19:02:01.453Z,11.10
2023-02-23T19:04:28.503Z,11.10
2023-02-23T19:06:55.522Z,11.10
2023-02-23T19:09:22.701Z,11.20
2023-02-23T19:11:50.707Z,11.20
2023-02-23T19:14:20.918Z,11.20
2023-02-23T19:16:50.894Z,11.10
2023-02-23T19:19:18.661Z,11.00
2023-02-23T19:21:45.722Z,11.10
2023-02-23T19:24:12.836Z,11.10
2023-02-23T19:26:40.779Z,11.10
2023-02-23T19:29:08.185Z,11.10
2023-02-23T19:31:36.825Z,11.00
2023-02-23T19:34:04.965Z,11.00
2023-02-23T19:41:39.483Z,10.60
2023-02-23T19:44:06.714Z,10.50
2023-02-23T19:46:35.016Z,10.50
2023-02-23T19:49:03.182Z,10.50
2023-02-23T19:51:30.560Z,10.60
2023-02-23T19:53:59.460Z,10.60
2023-02-23T19:56:30.486Z,10.70
2023-02-23T19:59:00.557Z,10.60
2023-02-23T20:01:29.766Z,10.70
2023-02-23T20:04:02.421Z,10.70
2023-02-23T20:06:34.711Z,10.70
2023-02-23T20:09:05.140Z,10.70
2023-02-23T20:11:32.818Z,10.70
2023-02-23T20:14:00.557Z,10.70
2023-02-23T20:16:29.500Z,10.70
2023-02-23T20:19:00.183Z,10.60
2023-02-23T20:21:30.499Z,10.40
2023-02-23T20:23:57.749Z,10.10
2023-02-23T20:26:37.089Z,9.80
2023-02-23T20:29:10.609Z,9.60
2023-02-23T20:31:41.673Z,9.60
2023-02-23T20:34:10.942Z,9.60
2023-02-23T20:36:38.776Z,9.70
2023-02-23T20:39:06.133Z,9.80
2023-02-23T20:41:33.337Z,9.90
2023-02-23T20:44:01.156Z,10.00
2023-02-23T20:46:30.877Z,10.10
2023-02-23T20:48:59.348Z,10.10
2023-02-23T20:51:27.368Z,10.30
2023-02-23T20:53:54.613Z,10.30
2023-02-23T20:56:22.287Z,10.30
2023-02-23T20:58:49.823Z,10.10
2023-02-23T21:01:22.966Z,10.20
2023-02-23T21:03:51.865Z,10.20
2023-02-23T21:06:20.732Z,10.20
2023-02-23T21:08:49.771Z,10.10
2023-02-23T21:11:19.922Z,10.20
2023-02-23T21:13:47.735Z,10.10
2023-02-23T21:16:17.474Z,10.10
2023-02-23T21:18:45.088Z,10.30
2023-02-23T21:21:15.523Z,10.30
2023-02-23T21:23:45.396Z,10.30
2023-02-23T21:26:16.034Z,10.20
2023-02-23T21:28:45.805Z,10.10
2023-02-23T21:31:15.255Z,10.00
2023-02-23T21:33:43.933Z,9.80
2023-02-23T21:36:12.545Z,9.80
2023-02-23T21:38:42.666Z,9.80
2023-02-23T21:41:12.656Z,9.70
2023-02-23T21:43:42.546Z,9.70
2023-02-23T21:46:13.572Z,9.70
2023-02-23T21:48:41.983Z,9.70
2023-02-23T21:51:13.210Z,9.70
2023-02-23T21:53:41.867Z,9.60
2023-02-23T21:56:22.434Z,9.60
2023-02-23T21:58:53.146Z,9.50
2023-02-23T22:01:24.759Z,9.40
2023-02-23T22:03:54.810Z,9.40
2023-02-23T22:06:29.713Z,9.50
2023-02-23T22:08:57.089Z,9.50
2023-02-23T22:11:27.678Z,9.40
2023-02-23T22:13:59.162Z,9.40
2023-02-23T22:16:33.863Z,9.40
2023-02-23T22:19:04.155Z,9.20
2023-02-23T22:21:37.674Z,9.20
2023-02-23T22:24:06.766Z,9.30
2023-02-23T22:26:39.729Z,9.30
2023-02-23T22:29:09.751Z,9.20
2023-02-23T22:31:37.704Z,9.10
2023-02-23T22:34:06.334Z,9.10
2023-02-23T22:36:34.410Z,9.20
2023-02-23T22:39:02.555Z,9.20
2023-02-23T22:41:29.608Z,9.30
2023-02-23T22:43:57.995Z,9.40
2023-02-23T22:46:26.046Z,9.40
2023-02-23T22:48:53.488Z,9.40
2023-02-23T22:51:21.314Z,9.40
2023-02-23T23:08:41.947Z,9.00
2023-02-23T23:11:19.301Z,9.20
2023-02-23T23:13:53.456Z,9.20
2023-02-23T23:16:31.501Z,9.30
2023-02-23T23:19:07.884Z,9.30
2023-02-23T23:21:35.840Z,9.30
2023-02-23T23:24:07.170Z,9.30
2023-02-23T23:26:39.597Z,9.20
2023-02-23T23:29:11.245Z,9.00
2023-02-23T23:31:45.304Z,8.90
2023-02-23T23:34:16.674Z,8.80
2023-02-23T23:36:49.253Z,8.80
2023-02-23T23:39:22.899Z,8.90
2023-02-23T23:41:50.721Z,8.90
2023-02-23T23:44:23.243Z,9.00
2023-02-23T23:46:51.062Z,9.10
2023-02-23T23:49:21.931Z,9.10
2023-02-23T23:51:52.137Z,9.00
2023-02-23T23:54:30.739Z,8.80
2023-02-23T23:57:03.662Z,8.60
2023-02-23T23:59:31.751Z,8.60
